Домодедово

Карта отелей и гостиниц, располагающихся рядом с аэропортом Домодедово :

Домодедово
Москва
Московская область 55° 24' 29.9412" N, 37° 54' 24.0012" E
Код аэродрома ИКАО
UUDD
Код аэродрома RU
УУДД
Координаты
N55.40832° E037.90667°
Превышение над уровнем моря
181
Основная полоса
14L/32R
Курс магнитный
135/315
Длина основной ВПП
3795
Ширина основной ВПП
53
Покрытие основной ВПП
Твёрдое
Освещение ВПП
Постоянное
Тип: 
Аэродром
Класс аэродрома: 
Международный
Принадлежность: 
ГА
Статус: 
Действующий
Сайт: 
www.domodedovo.ru
Страна: 
Россия
Регион: 
Московская область
Город: 
Москва
Дополнительная информация: 
Оператор: Группа Ист Лайн. Нкр.=(800)м. Хаб для АК: S7 Airlines, Трансаэро, Уральские авиалинии, ВИМ-Авиа, Red Wings Airlines, РусЛайн.
Погода: 

Авиационная погода в Москва - Домодедово

Погода METAR: 
UUDD 281000Z 21004MPS 9999 SCT009 OVC018 04/02 Q1003 R88/290042 NOSIG
Время наблюдения
2021-11-28T10:00:00Z
Температура C
4.0
Точка росы
2.0
Направление ветра
210
Скорость ветра (узлы)
8
Метео видимость
6.21
Явления погоды
Условия полета
MVFR
Аэропорт подробнее: 

Найти трансфер

С помощью этой формы Вы можете найти трансфер из аэропорта Домодедово в город, аэропорт или вокзал:

Карта места

Javascript is required to view this map.

Погода в аэропортах:

Авиационная погода в Пулково

Регион: 
Погода METAR: 
ULLI 281000Z 05004MPS 1800 R10R/1800D R10L/1700N SHSN SCT009 BKN015CB OVC036 M02/M04 Q1001 R10R/491032 R10L/490537 NOSIG
Время наблюдения
2021-11-28T10:00:00Z
Температура C
-2.0
Точка росы
-4.0
Направление ветра
50
Скорость ветра (узлы)
8
Метео видимость
1.12
Явления погоды
SHSN
Условия полета
IFR
Аэропорт подробнее: 

Авиационная погода в Гродно

Регион: 
Погода METAR: 
UMMG 281100Z 14003MPS 5000 BR SCT020 OVC100 02/M00 Q1000 NOSIG
Время наблюдения
2021-11-28T11:00:00Z
Температура C
2.0
Точка росы
0.0
Направление ветра
140
Скорость ветра (узлы)
6
Метео видимость
3.11
Явления погоды
BR
Условия полета
MVFR
Аэропорт подробнее: 

Авиационная погода в Череповце

Регион: 
Погода METAR: 
ULWC 281000Z 15001MPS 5000 -RASN BKN002 OVC016 00/00 Q0996 R21/690239 NOSIG RMK QBB080 QFE737/0983
Время наблюдения
2021-11-28T10:00:00Z
Температура C
0.0
Точка росы
0.0
Направление ветра
150
Скорость ветра (узлы)
2
Метео видимость
3.11
Явления погоды
-RA -SN
Условия полета
LIFR
Аэропорт подробнее: 

Авиационная погода в Пскове

Регион: 
Погода METAR: 
ULOO 281000Z VRB01MPS 4900 -SN SCT007 OVC017 M02/M04 Q1000 R01/590240 NOSIG RMK QFE746
Время наблюдения
2021-11-28T10:00:00Z
Температура C
-2.0
Точка росы
-4.0
Направление ветра
0
Скорость ветра (узлы)
2
Метео видимость
3.04
Явления погоды
-SN
Условия полета
MVFR